Decoded Metar for KBKL (CLEVELAND in OH, USA) (IATA:BKL) | Meteo·Mobile Aviation Weather
aviador You're here:

KBKL Decoded Metar

CLEVELAND in OH, USA
Report Time2018-12-17 06:53:00
UTC Time2018-12-17 07:36:01
Flight Rules vfr VFR
Wind220° at 11 kt
W.Decomp.*RWY 24: 10.7 kt HW 2.5 kt LCW
W.Rank220° ranks 3
Current wind is below 220° avg. (11.1)
Visibility9999 m
Phenomena:N/A
Clouds:N/A
Expected CloudBase > 1,600 ft AGL from Temp-Dew spread
CeilingNone
Temp03°C (ISA -11)
Dew Point-1°C (75% RH)
AAT-3.1°C
QNH1013 hPa
Density Alt-623 ft
Elevation604 ft
Report Wrong Elevation
Raw Report
KBKL 170653Z AUTO 22011KT 10SM CLR 03/M01 A2992 RMK AO2 SLP137
T00281011=

Extra information for KBKL:More info

Metar Taf Metar & Taf Last 4 Metars F.Rules Stats Wind Profile Meteogram Temp Stats Airport Information Weather charts Add Link Nearby VenuesMetar ALERT Operation Metar Decoded Social comments

AIRNAV info for KBKL